Time,TemperatureF,DewpointF,PressureIn,WindDirection,WindDirectionDegrees,WindSpeedMPH,WindSpeedGustMPH,Humidity,HourlyPrecipIn,Conditions,Clouds,dailyrainin,SoftwareType,DateUTC
2013-03-04 00:02:00,32.9,26.5,30.10,South,180,0.0,0.9,77,0.00,,,0.00,WUHU216HW,2013-03-04 05:02:00,
2013-03-04 00:07:00,32.9,26.5,30.11,South,180,0.0,0.0,77,0.00,,,0.00,WUHU216HW,2013-03-04 05:07:00,
2013-03-04 00:12:00,33.1,26.6,30.11,South,180,0.0,0.0,77,0.00,,,0.00,WUHU216HW,2013-03-04 05:12:00,
2013-03-04 00:17:00,32.9,26.5,30.11,South,180,0.0,0.0,77,0.00,,,0.00,WUHU216HW,2013-03-04 05:17:00,
2013-03-04 00:22:00,32.9,26.5,30.11,NE,45,0.0,0.0,77,0.00,,,0.00,WUHU216HW,2013-03-04 05:22:00,
2013-03-04 00:27:00,32.8,26.3,30.11,NNE,23,0.0,0.0,77,0.00,,,0.00,WUHU216HW,2013-03-04 05:27:00,
2013-03-04 00:32:00,32.8,26.3,30.11,SSW,203,1.1,1.1,77,0.00,,,0.00,WUHU216HW,2013-03-04 05:32:00,
2013-03-04 00:37:00,32.8,26.6,30.11,NNW,338,0.0,1.1,78,0.00,,,0.00,WUHU216HW,2013-03-04 05:37:00,
2013-03-04 00:42:00,32.8,26.3,30.11,NNW,338,0.0,0.4,77,0.00,,,0.00,WUHU216HW,2013-03-04 05:42:00,
2013-03-04 00:47:00,32.6,26.5,30.11,WNW,293,0.0,0.0,78,0.00,,,0.00,WUHU216HW,2013-03-04 05:47:00,
2013-03-04 00:52:00,32.6,26.5,30.11,SW,225,0.0,0.0,78,0.00,,,0.00,WUHU216HW,2013-03-04 05:52:00,
2013-03-04 00:57:00,32.6,26.5,30.11,SW,225,0.0,0.0,78,0.00,,,0.00,WUHU216HW,2013-03-04 05:57:00,
2013-03-04 01:02:00,32.6,26.5,30.11,SW,225,0.0,0.0,78,0.00,,,0.00,WUHU216HW,2013-03-04 06:02:00,
2013-03-04 01:07:00,32.4,26.3,30.12,NNW,338,0.0,0.0,78,0.00,,,0.00,WUHU216HW,2013-03-04 06:07:00,
2013-03-04 01:12:00,32.2,26.2,30.12,NNW,338,0.0,0.0,78,0.00,,,0.00,WUHU216HW,2013-03-04 06:12:00,
2013-03-04 01:17:00,32.2,26.2,30.12,NNE,23,0.4,0.4,78,0.00,,,0.00,WUHU216HW,2013-03-04 06:17:00,
2013-03-04 01:22:00,32.2,26.2,30.11,East,90,0.0,0.4,78,0.00,,,0.00,WUHU216HW,2013-03-04 06:22:00,
2013-03-04 01:27:00,32.2,26.5,30.12,North,0,0.0,0.0,79,0.00,,,0.00,WUHU216HW,2013-03-04 06:27:00,
2013-03-04 01:32:00,32.2,26.5,30.12,North,0,0.0,0.4,79,0.00,,,0.00,WUHU216HW,2013-03-04 06:32:00,
2013-03-04 01:37:00,32.2,26.5,30.12,NW,315,0.0,0.4,79,0.00,,,0.00,WUHU216HW,2013-03-04 06:37:00,
2013-03-04 01:42:00,32.2,26.5,30.12,NNE,23,0.0,0.0,79,0.00,,,0.00,WUHU216HW,2013-03-04 06:42:00,
2013-03-04 01:47:00,32.0,26.3,30.11,NNE,23,0.0,0.4,79,0.00,,,0.00,WUHU216HW,2013-03-04 06:47:00,
2013-03-04 01:52:00,32.0,26.6,30.11,North,0,0.0,0.4,80,0.00,,,0.00,WUHU216HW,2013-03-04 06:52:00,
2013-03-04 01:57:00,32.0,26.6,30.11,North,0,0.2,0.2,80,0.00,,,0.00,WUHU216HW,2013-03-04 06:57:00,
2013-03-04 02:02:00,32.0,26.6,30.11,NE,45,0.0,0.2,80,0.00,,,0.00,WUHU216HW,2013-03-04 07:02:00,
2013-03-04 02:07:00,32.0,26.6,30.11,NE,45,0.0,0.0,80,0.00,,,0.00,WUHU216HW,2013-03-04 07:07:00,
2013-03-04 02:13:00,32.0,26.3,30.11,NE,45,0.0,0.0,79,0.00,,,0.00,WUHU216HW,2013-03-04 07:13:00,
2013-03-04 02:18:00,32.0,26.3,30.11,NE,45,0.0,0.0,79,0.00,,,0.00,WUHU216HW,2013-03-04 07:18:00,
2013-03-04 02:23:00,32.0,26.3,30.11,NE,45,0.0,0.0,79,0.00,,,0.00,WUHU216HW,2013-03-04 07:23:00,
2013-03-04 02:28:00,31.9,26.1,30.11,NE,45,0.0,0.0,79,0.00,,,0.00,WUHU216HW,2013-03-04 07:28:00,
2013-03-04 02:33:00,31.9,26.1,30.11,NNE,23,0.0,0.0,79,0.00,,,0.00,WUHU216HW,2013-03-04 07:33:00,
2013-03-04 02:38:00,31.7,25.9,30.11,NNE,23,0.0,0.0,79,0.00,,,0.00,WUHU216HW,2013-03-04 07:38:00,
2013-03-04 02:43:00,31.7,25.9,30.11,NNE,23,0.0,0.0,79,0.00,,,0.00,WUHU216HW,2013-03-04 07:43:00,
2013-03-04 02:48:00,31.7,25.9,30.11,NNE,23,0.0,0.0,79,0.00,,,0.00,WUHU216HW,2013-03-04 07:48:00,
2013-03-04 02:53:00,31.5,25.7,30.11,NNE,23,0.0,0.0,79,0.00,,,0.00,WUHU216HW,2013-03-04 07:53:00,
2013-03-04 02:58:00,31.5,25.7,30.11,NNE,23,0.0,0.0,79,0.00,,,0.00,WUHU216HW,2013-03-04 07:58:00,
2013-03-04 03:03:00,31.5,25.7,30.11,NNE,23,0.0,0.0,79,0.00,,,0.00,WUHU216HW,2013-03-04 08:03:00,
2013-03-04 03:08:00,31.5,25.7,30.11,NW,315,0.0,0.2,79,0.00,,,0.00,WUHU216HW,2013-03-04 08:08:00,
2013-03-04 03:13:00,31.5,26.1,30.12,NW,315,0.0,0.2,80,0.00,,,0.00,WUHU216HW,2013-03-04 08:13:00,
2013-03-04 03:18:00,31.7,26.3,30.12,NW,315,0.0,0.0,80,0.00,,,0.00,WUHU216HW,2013-03-04 08:18:00,
2013-03-04 03:23:00,31.5,26.1,30.12,North,0,0.0,0.0,80,0.00,,,0.00,WUHU216HW,2013-03-04 08:23:00,
2013-03-04 03:28:00,31.5,26.1,30.12,NNW,338,0.0,0.0,80,0.00,,,0.00,WUHU216HW,2013-03-04 08:28:00,
2013-03-04 03:33:00,31.3,25.9,30.12,East,90,0.0,0.0,80,0.00,,,0.00,WUHU216HW,2013-03-04 08:33:00,
2013-03-04 03:38:00,31.3,25.9,30.13,East,90,0.0,0.0,80,0.00,,,0.00,WUHU216HW,2013-03-04 08:38:00,
2013-03-04 03:43:00,31.3,25.9,30.13,West,270,0.0,0.0,80,0.00,,,0.00,WUHU216HW,2013-03-04 08:43:00,
2013-03-04 03:48:00,31.3,25.9,30.13,NNW,338,0.0,0.0,80,0.00,,,0.00,WUHU216HW,2013-03-04 08:48:00,
2013-03-04 03:53:00,31.3,26.2,30.13,NE,45,0.0,0.0,81,0.00,,,0.00,WUHU216HW,2013-03-04 08:53:00,
2013-03-04 03:58:00,31.3,26.2,30.13,North,0,0.0,0.0,81,0.00,,,0.00,WUHU216HW,2013-03-04 08:58:00,
2013-03-04 04:03:00,31.3,26.2,30.13,North,0,0.7,0.7,81,0.00,,,0.00,WUHU216HW,2013-03-04 09:03:00,
2013-03-04 04:08:00,31.5,26.4,30.14,WSW,248,0.0,0.7,81,0.00,,,0.00,WUHU216HW,2013-03-04 09:08:00,
2013-03-04 04:13:00,31.5,26.4,30.14,NNE,23,0.0,0.2,81,0.00,,,0.00,WUHU216HW,2013-03-04 09:13:00,
2013-03-04 04:18:00,31.5,26.4,30.14,North,0,0.0,0.0,81,0.00,,,0.00,WUHU216HW,2013-03-04 09:18:00,
2013-03-04 04:23:00,31.3,26.2,30.14,NNE,23,0.0,0.4,81,0.00,,,0.00,WUHU216HW,2013-03-04 09:23:00,
2013-03-04 04:28:00,31.3,26.2,30.14,NNE,23,0.0,0.4,81,0.00,,,0.00,WUHU216HW,2013-03-04 09:28:00,
2013-03-04 04:33:00,31.3,26.2,30.14,North,0,0.0,0.0,81,0.00,,,0.00,WUHU216HW,2013-03-04 09:33:00,
2013-03-04 04:38:00,31.5,26.4,30.14,NNW,338,0.0,0.0,81,0.00,,,0.00,WUHU216HW,2013-03-04 09:38:00,
2013-03-04 04:43:00,31.5,26.4,30.14,NNW,338,0.0,0.0,81,0.00,,,0.00,WUHU216HW,2013-03-04 09:43:00,
2013-03-04 04:48:00,31.5,26.4,30.14,NNE,23,0.0,0.0,81,0.00,,,0.00,WUHU216HW,2013-03-04 09:48:00,
2013-03-04 04:53:00,31.3,26.2,30.14,North,0,0.0,0.0,81,0.00,,,0.00,WUHU216HW,2013-03-04 09:53:00,
2013-03-04 04:58:00,31.5,26.4,30.14,North,0,0.0,0.0,81,0.00,,,0.00,WUHU216HW,2013-03-04 09:58:00,
2013-03-04 05:03:00,31.3,26.2,30.14,North,0,0.0,0.0,81,0.00,,,0.00,WUHU216HW,2013-03-04 10:03:00,
2013-03-04 05:08:00,31.5,26.4,30.15,NNW,338,0.0,0.0,81,0.00,,,0.00,WUHU216HW,2013-03-04 10:08:00,
2013-03-04 05:13:00,31.5,26.4,30.15,NNW,338,0.0,0.0,81,0.00,,,0.00,WUHU216HW,2013-03-04 10:13:00,
2013-03-04 05:18:00,31.5,26.4,30.15,NNW,338,0.0,0.0,81,0.00,,,0.00,WUHU216HW,2013-03-04 10:18:00,
2013-03-04 05:23:00,31.3,26.2,30.15,NNW,338,0.0,0.0,81,0.00,,,0.00,WUHU216HW,2013-03-04 10:23:00,
2013-03-04 05:28:00,31.3,26.2,30.15,NNE,23,0.0,0.0,81,0.00,,,0.00,WUHU216HW,2013-03-04 10:28:00,
2013-03-04 05:33:00,31.3,26.2,30.16,NNE,23,0.0,0.0,81,0.00,,,0.00,WUHU216HW,2013-03-04 10:33:00,
2013-03-04 05:38:00,31.3,26.2,30.16,North,0,0.0,0.0,81,0.00,,,0.00,WUHU216HW,2013-03-04 10:38:00,
2013-03-04 05:43:00,31.1,26.3,30.16,North,0,0.0,0.0,82,0.00,,,0.00,WUHU216HW,2013-03-04 10:43:00,
2013-03-04 05:48:00,31.0,26.1,30.16,North,0,0.0,0.0,82,0.00,,,0.00,WUHU216HW,2013-03-04 10:48:00,
2013-03-04 05:53:00,31.0,26.1,30.17,North,0,0.0,0.0,82,0.00,,,0.00,WUHU216HW,2013-03-04 10:53:00,
2013-03-04 05:58:00,31.1,26.3,30.16,NW,315,0.0,0.0,82,0.00,,,0.00,WUHU216HW,2013-03-04 10:58:00,
2013-03-04 06:03:00,31.0,26.1,30.17,NNE,23,0.0,0.0,82,0.00,,,0.00,WUHU216HW,2013-03-04 11:03:00,
2013-03-04 06:08:00,31.0,26.1,30.17,NNE,23,0.0,0.0,82,0.00,,,0.00,WUHU216HW,2013-03-04 11:08:00,
2013-03-04 06:13:00,31.0,26.1,30.17,WNW,293,0.0,0.0,82,0.00,,,0.00,WUHU216HW,2013-03-04 11:13:00,
2013-03-04 06:18:00,31.1,26.7,30.17,NW,315,0.0,0.0,83,0.00,,,0.00,WUHU216HW,2013-03-04 11:18:00,
2013-03-04 06:23:00,31.1,26.7,30.17,NW,315,0.0,0.0,83,0.00,,,0.00,WUHU216HW,2013-03-04 11:23:00,
2013-03-04 06:28:00,31.1,26.7,30.17,NW,315,0.0,0.0,83,0.00,,,0.00,WUHU216HW,2013-03-04 11:28:00,
2013-03-04 06:33:00,31.0,26.5,30.18,NNW,338,0.0,0.0,83,0.00,,,0.00,WUHU216HW,2013-03-04 11:33:00,
2013-03-04 06:38:00,31.0,26.5,30.18,NNW,338,0.0,0.0,83,0.00,,,0.00,WUHU216HW,2013-03-04 11:38:00,
2013-03-04 06:43:00,31.1,26.7,30.18,NNW,338,0.0,0.0,83,0.00,,,0.00,WUHU216HW,2013-03-04 11:43:00,
2013-03-04 06:48:00,31.0,26.5,30.18,West,270,0.0,0.0,83,0.00,,,0.00,WUHU216HW,2013-03-04 11:48:00,
2013-03-04 06:53:00,31.0,26.5,30.18,North,0,0.0,0.0,83,0.00,,,0.00,WUHU216HW,2013-03-04 11:53:00,
2013-03-04 06:58:00,31.0,26.5,30.18,North,0,0.0,0.0,83,0.00,,,0.00,WUHU216HW,2013-03-04 11:58:00,
2013-03-04 07:03:00,31.0,26.5,30.18,NE,45,0.0,0.0,83,0.00,,,0.00,WUHU216HW,2013-03-04 12:03:00,
2013-03-04 07:08:00,31.1,26.7,30.18,West,270,1.1,1.1,83,0.00,,,0.00,WUHU216HW,2013-03-04 12:08:00,
2013-03-04 07:13:00,31.3,26.8,30.18,West,270,0.2,1.1,83,0.00,,,0.00,WUHU216HW,2013-03-04 12:13:00,
2013-03-04 07:18:00,31.5,27.0,30.18,SW,225,0.0,1.1,83,0.00,,,0.00,WUHU216HW,2013-03-04 12:18:00,
2013-03-04 07:23:00,31.5,27.0,30.18,North,0,0.0,0.0,83,0.00,,,0.00,WUHU216HW,2013-03-04 12:23:00,
2013-03-04 07:28:00,31.7,27.2,30.18,North,0,0.0,0.0,83,0.00,,,0.00,WUHU216HW,2013-03-04 12:28:00,
2013-03-04 07:33:00,32.0,27.6,30.19,North,0,0.0,0.0,83,0.00,,,0.00,WUHU216HW,2013-03-04 12:33:00,
2013-03-04 07:38:00,32.4,27.8,30.19,North,0,0.0,0.0,83,0.00,,,0.00,WUHU216HW,2013-03-04 12:38:00,
2013-03-04 07:43:00,33.1,28.4,30.20,West,270,1.8,1.8,83,0.00,,,0.00,WUHU216HW,2013-03-04 12:43:00,
2013-03-04 07:48:00,33.5,28.8,30.20,NNW,338,1.1,2.0,83,0.00,,,0.00,WUHU216HW,2013-03-04 12:48:00,
2013-03-04 07:53:00,33.7,29.0,30.21,WNW,293,0.0,3.6,83,0.00,,,0.00,WUHU216HW,2013-03-04 12:53:00,
2013-03-04 07:58:00,34.2,29.5,30.20,WSW,248,2.5,3.6,83,0.00,,,0.00,WUHU216HW,2013-03-04 12:58:00,
2013-03-04 08:03:00,34.6,29.5,30.20,NNW,338,0.0,2.5,82,0.00,,,0.00,WUHU216HW,2013-03-04 13:03:00,
2013-03-04 08:08:00,35.3,30.2,30.20,WNW,293,0.4,2.2,82,0.00,,,0.00,WUHU216HW,2013-03-04 13:08:00,
2013-03-04 08:13:00,37.3,32.0,30.20,North,0,0.7,2.2,81,0.00,,,0.00,WUHU216HW,2013-03-04 13:13:00,
2013-03-04 08:18:00,38.5,32.6,30.20,NNW,338,0.4,1.3,79,0.00,,,0.00,WUHU216HW,2013-03-04 13:18:00,
2013-03-04 08:23:00,39.2,32.9,30.20,NW,315,0.0,1.3,78,0.00,,,0.00,WUHU216HW,2013-03-04 13:23:00,
2013-03-04 08:28:00,40.0,33.3,30.21,NW,315,0.7,1.6,77,0.00,,,0.00,WUHU216HW,2013-03-04 13:28:00,
2013-03-04 08:33:00,40.5,32.9,30.21,NNW,338,0.4,1.6,74,0.00,,,0.00,WUHU216HW,2013-03-04 13:33:00,
2013-03-04 08:38:00,40.9,33.1,30.21,NW,315,1.8,2.0,74,0.00,,,0.00,WUHU216HW,2013-03-04 13:38:00,
2013-03-04 08:43:00,41.2,32.6,30.22,North,0,0.7,2.0,71,0.00,,,0.00,WUHU216HW,2013-03-04 13:43:00,
2013-03-04 08:48:00,42.1,33.5,30.21,North,0,1.8,1.8,71,0.00,,,0.00,WUHU216HW,2013-03-04 13:48:00,
2013-03-04 08:53:00,42.7,33.7,30.21,NNE,23,1.6,2.7,70,0.00,,,0.00,WUHU216HW,2013-03-04 13:53:00,
2013-03-04 08:58:00,43.2,34.2,30.21,WNW,293,1.3,2.7,70,0.00,,,0.00,WUHU216HW,2013-03-04 13:58:00,
2013-03-04 09:03:00,43.4,32.4,30.21,North,0,1.3,3.4,65,0.00,,,0.00,WUHU216HW,2013-03-04 14:03:00,
2013-03-04 09:08:00,43.6,33.0,30.21,NNE,23,1.8,3.4,66,0.00,,,0.00,WUHU216HW,2013-03-04 14:08:00,
2013-03-04 09:13:00,44.3,32.0,30.21,NNE,23,2.9,2.9,62,0.00,,,0.00,WUHU216HW,2013-03-04 14:13:00,
2013-03-04 09:18:00,45.0,32.4,30.20,North,0,2.5,3.8,61,0.00,,,0.00,WUHU216HW,2013-03-04 14:18:00,
2013-03-04 09:23:00,45.4,31.9,30.20,NE,45,2.9,3.8,59,0.00,,,0.00,WUHU216HW,2013-03-04 14:23:00,
2013-03-04 09:28:00,45.5,31.6,30.20,NNE,23,1.1,3.4,58,0.00,,,0.00,WUHU216HW,2013-03-04 14:28:00,
2013-03-04 09:33:00,45.7,31.3,30.21,North,0,1.8,3.4,57,0.00,,,0.00,WUHU216HW,2013-03-04 14:33:00,
2013-03-04 09:38:00,47.9,33.9,30.21,NNE,23,3.4,3.4,58,0.00,,,0.00,WUHU216HW,2013-03-04 14:38:00,
2013-03-04 09:43:00,48.6,33.1,30.21,ENE,68,2.2,3.4,55,0.00,,,0.00,WUHU216HW,2013-03-04 14:43:00,
2013-03-04 09:48:00,49.0,32.9,30.21,North,0,3.8,3.8,54,0.00,,,0.00,WUHU216HW,2013-03-04 14:48:00,
2013-03-04 09:53:00,49.9,32.9,30.21,NNE,23,2.5,3.8,52,0.00,,,0.00,WUHU216HW,2013-03-04 14:53:00,
2013-03-04 09:58:00,50.8,31.8,30.20,WSW,248,1.1,2.7,48,0.00,,,0.00,WUHU216HW,2013-03-04 14:58:00,
2013-03-04 10:03:00,50.8,31.2,30.21,North,0,1.8,3.8,47,0.00,,,0.00,WUHU216HW,2013-03-04 15:03:00,
2013-03-04 10:08:00,51.3,31.7,30.21,NNW,338,2.2,3.8,47,0.00,,,0.00,WUHU216HW,2013-03-04 15:08:00,
2013-03-04 10:13:00,52.6,32.9,30.21,North,0,1.8,2.5,47,0.00,,,0.00,WUHU216HW,2013-03-04 15:13:00,
2013-03-04 10:18:00,52.9,32.1,30.21,North,0,1.8,4.7,45,0.00,,,0.00,WUHU216HW,2013-03-04 15:18:00,
2013-03-04 10:23:00,52.4,30.4,30.21,NNE,23,3.4,4.7,43,0.00,,,0.00,WUHU216HW,2013-03-04 15:23:00,
2013-03-04 10:28:00,53.3,31.2,30.21,North,0,1.8,4.0,43,0.00,,,0.00,WUHU216HW,2013-03-04 15:28:00,
2013-03-04 10:33:00,54.4,32.8,30.21,North,0,1.1,4.0,44,0.00,,,0.00,WUHU216HW,2013-03-04 15:33:00,
2013-03-04 10:38:00,56.0,34.8,30.21,NE,45,0.4,4.0,45,0.00,,,0.00,WUHU216HW,2013-03-04 15:38:00,
2013-03-04 10:43:00,58.5,35.4,30.21,NNW,338,1.1,4.0,42,0.00,,,0.00,WUHU216HW,2013-03-04 15:43:00,
2013-03-04 10:48:00,60.3,33.0,30.21,NE,45,4.3,6.3,36,0.00,,,0.00,WUHU216HW,2013-03-04 15:48:00,
2013-03-04 10:53:00,61.4,34.7,30.20,WSW,248,2.5,6.3,37,0.00,,,0.00,WUHU216HW,2013-03-04 15:53:00,
2013-03-04 10:58:00,63.0,34.0,30.20,North,0,2.7,3.4,34,0.00,,,0.00,WUHU216HW,2013-03-04 15:58:00,
2013-03-04 11:03:00,63.7,33.9,30.21,North,0,2.2,4.3,33,0.00,,,0.00,WUHU216HW,2013-03-04 16:03:00,
2013-03-04 11:08:00,64.3,34.4,30.21,NE,45,2.2,4.3,33,0.00,,,0.00,WUHU216HW,2013-03-04 16:08:00,
2013-03-04 11:13:00,64.6,32.6,30.21,NNW,338,2.9,4.3,30,0.00,,,0.00,WUHU216HW,2013-03-04 16:13:00,
2013-03-04 11:18:00,65.7,35.7,30.20,North,0,1.3,3.8,33,0.00,,,0.00,WUHU216HW,2013-03-04 16:18:00,
2013-03-04 11:23:00,66.6,36.5,30.20,North,0,2.5,6.0,33,0.00,,,0.00,WUHU216HW,2013-03-04 16:23:00,
2013-03-04 11:28:00,66.6,34.3,30.20,West,270,3.4,6.0,30,0.00,,,0.00,WUHU216HW,2013-03-04 16:28:00,
2013-03-04 11:33:00,66.1,33.8,30.20,East,90,2.9,4.0,30,0.00,,,0.00,WUHU216HW,2013-03-04 16:33:00,
2013-03-04 11:38:00,66.2,34.7,30.20,WNW,293,4.3,4.3,31,0.00,,,0.00,WUHU216HW,2013-03-04 16:38:00,
2013-03-04 11:43:00,66.1,34.6,30.20,WSW,248,1.8,4.5,31,0.00,,,0.00,WUHU216HW,2013-03-04 16:43:00,
2013-03-04 11:48:00,65.2,33.0,30.20,NW,315,3.8,8.9,30,0.00,,,0.00,WUHU216HW,2013-03-04 16:48:00,
2013-03-04 11:53:00,64.8,33.5,30.19,SSE,158,1.1,8.9,31,0.00,,,0.00,WUHU216HW,2013-03-04 16:53:00,
2013-03-04 11:58:00,64.8,31.8,30.19,NNE,23,1.6,7.2,29,0.00,,,0.00,WUHU216HW,2013-03-04 16:58:00,
2013-03-04 12:03:00,64.3,32.2,30.18,SW,225,1.3,5.4,30,0.00,,,0.00,WUHU216HW,2013-03-04 17:03:00,
2013-03-04 12:09:00,64.6,32.6,30.19,ESE,113,0.4,5.4,30,0.00,,,0.00,WUHU216HW,2013-03-04 17:09:00,
2013-03-04 12:14:00,64.6,32.6,30.18,NW,315,1.8,4.7,30,0.00,,,0.00,WUHU216HW,2013-03-04 17:14:00,
2013-03-04 12:19:00,65.0,32.9,30.18,NNW,338,2.0,6.0,30,0.00,,,0.00,WUHU216HW,2013-03-04 17:19:00,
2013-03-04 12:24:00,64.8,32.8,30.17,North,0,1.1,6.0,30,0.00,,,0.00,WUHU216HW,2013-03-04 17:24:00,
2013-03-04 12:29:00,64.3,30.2,30.17,ENE,68,4.0,4.0,28,0.00,,,0.00,WUHU216HW,2013-03-04 17:29:00,
2013-03-04 12:34:00,64.1,30.1,30.17,North,0,1.8,4.0,28,0.00,,,0.00,WUHU216HW,2013-03-04 17:34:00,
2013-03-04 12:39:00,64.4,32.4,30.17,WSW,248,0.9,4.0,30,0.00,,,0.00,WUHU216HW,2013-03-04 17:39:00,
2013-03-04 12:44:00,63.7,27.8,30.16,West,270,3.1,5.1,26,0.00,,,0.00,WUHU216HW,2013-03-04 17:44:00,
2013-03-04 12:49:00,63.4,31.4,30.16,NE,45,2.9,5.1,30,0.00,,,0.00,WUHU216HW,2013-03-04 17:49:00,
2013-03-04 12:54:00,63.7,28.8,30.16,SSW,203,2.0,5.6,27,0.00,,,0.00,WUHU216HW,2013-03-04 17:54:00,
2013-03-04 12:59:00,61.7,28.1,30.16,West,270,5.6,5.6,28,0.00,,,0.00,WUHU216HW,2013-03-04 17:59:00,
2013-03-04 13:04:00,61.9,28.2,30.16,West,270,8.5,8.5,28,0.00,,,0.00,WUHU216HW,2013-03-04 18:04:00,
2013-03-04 13:09:00,62.3,29.5,30.15,WSW,248,2.5,8.5,29,0.00,,,0.00,WUHU216HW,2013-03-04 18:09:00,
2013-03-04 13:14:00,62.1,29.4,30.15,WSW,248,4.5,4.5,29,0.00,,,0.00,WUHU216HW,2013-03-04 18:14:00,
2013-03-04 13:19:00,61.9,28.2,30.14,North,0,1.1,4.5,28,0.00,,,0.00,WUHU216HW,2013-03-04 18:19:00,
2013-03-04 13:24:00,62.3,31.1,30.14,West,270,6.9,7.6,31,0.00,,,0.00,WUHU216HW,2013-03-04 18:24:00,
2013-03-04 13:29:00,62.6,30.8,30.14,North,0,1.8,7.6,30,0.00,,,0.00,WUHU216HW,2013-03-04 18:29:00,
2013-03-04 13:34:00,62.6,29.8,30.14,WSW,248,3.4,5.1,29,0.00,,,0.00,WUHU216HW,2013-03-04 18:34:00,
2013-03-04 13:39:00,62.8,31.0,30.14,East,90,1.1,5.1,30,0.00,,,0.00,WUHU216HW,2013-03-04 18:39:00,
2013-03-04 13:44:00,63.4,31.4,30.13,NNW,338,1.8,4.3,30,0.00,,,0.00,WUHU216HW,2013-03-04 18:44:00,
2013-03-04 13:49:00,63.5,30.6,30.13,NE,45,2.2,4.0,29,0.00,,,0.00,WUHU216HW,2013-03-04 18:49:00,
2013-03-04 13:54:00,63.4,29.4,30.13,West,270,7.4,7.4,28,0.00,,,0.00,WUHU216HW,2013-03-04 18:54:00,
2013-03-04 13:59:00,63.2,30.3,30.13,West,270,6.3,7.6,29,0.00,,,0.00,WUHU216HW,2013-03-04 18:59:00,
2013-03-04 14:04:00,63.7,30.8,30.13,NNW,338,1.8,7.6,29,0.00,,,0.00,WUHU216HW,2013-03-04 19:04:00,
2013-03-04 14:09:00,63.5,29.6,30.13,West,270,3.4,6.0,28,0.00,,,0.00,WUHU216HW,2013-03-04 19:09:00,
2013-03-04 14:14:00,63.5,30.6,30.13,West,270,3.1,6.0,29,0.00,,,0.00,WUHU216HW,2013-03-04 19:14:00,
2013-03-04 14:19:00,64.1,31.1,30.13,West,270,3.4,6.3,29,0.00,,,0.00,WUHU216HW,2013-03-04 19:19:00,
2013-03-04 14:24:00,63.7,30.8,30.13,NNW,338,1.3,6.3,29,0.00,,,0.00,WUHU216HW,2013-03-04 19:24:00,
2013-03-04 14:29:00,63.7,30.8,30.13,West,270,5.1,7.2,29,0.00,,,0.00,WUHU216HW,2013-03-04 19:29:00,
2013-03-04 14:34:00,63.9,31.0,30.13,WNW,293,1.8,7.2,29,0.00,,,0.00,WUHU216HW,2013-03-04 19:34:00,
2013-03-04 14:39:00,63.9,31.0,30.13,West,270,7.6,7.6,29,0.00,,,0.00,WUHU216HW,2013-03-04 19:39:00,
2013-03-04 14:44:00,64.3,32.2,30.13,North,0,1.1,7.6,30,0.00,,,0.00,WUHU216HW,2013-03-04 19:44:00,
2013-03-04 14:49:00,64.8,32.8,30.13,North,0,1.8,4.3,30,0.00,,,0.00,WUHU216HW,2013-03-04 19:49:00,
2013-03-04 14:54:00,64.8,32.8,30.13,North,0,0.4,3.4,30,0.00,,,0.00,WUHU216HW,2013-03-04 19:54:00,
2013-03-04 14:59:00,64.6,32.6,30.12,SE,135,0.7,3.4,30,0.00,,,0.00,WUHU216HW,2013-03-04 19:59:00,
2013-03-04 15:04:00,64.4,32.4,30.12,NNW,338,0.9,3.1,30,0.00,,,0.00,WUHU216HW,2013-03-04 20:04:00,
2013-03-04 15:09:00,64.4,33.1,30.12,NE,45,2.7,3.1,31,0.00,,,0.00,WUHU216HW,2013-03-04 20:09:00,
2013-03-04 15:14:00,64.1,32.0,30.12,WNW,293,0.9,3.1,30,0.00,,,0.00,WUHU216HW,2013-03-04 20:14:00,
2013-03-04 15:19:00,63.9,32.7,30.12,North,0,0.9,3.1,31,0.00,,,0.00,WUHU216HW,2013-03-04 20:19:00,
2013-03-04 15:24:00,63.5,30.6,30.11,North,0,2.5,6.0,29,0.00,,,0.00,WUHU216HW,2013-03-04 20:24:00,
2013-03-04 15:29:00,62.8,30.0,30.11,West,270,4.5,6.3,29,0.00,,,0.00,WUHU216HW,2013-03-04 20:29:00,
2013-03-04 15:34:00,62.5,29.6,30.11,West,270,3.4,6.3,29,0.00,,,0.00,WUHU216HW,2013-03-04 20:34:00,
2013-03-04 15:39:00,62.5,31.3,30.12,West,270,4.7,6.5,31,0.00,,,0.00,WUHU216HW,2013-03-04 20:39:00,
2013-03-04 15:44:00,62.6,30.8,30.12,SSW,203,3.8,6.5,30,0.00,,,0.00,WUHU216HW,2013-03-04 20:44:00,
2013-03-04 15:49:00,62.5,31.3,30.12,West,270,5.4,5.8,31,0.00,,,0.00,WUHU216HW,2013-03-04 20:49:00,
2013-03-04 15:54:00,62.5,29.6,30.12,WSW,248,3.6,5.8,29,0.00,,,0.00,WUHU216HW,2013-03-04 20:54:00,
2013-03-04 15:59:00,62.3,31.1,30.12,WSW,248,2.7,4.5,31,0.00,,,0.00,WUHU216HW,2013-03-04 20:59:00,
2013-03-04 16:04:00,62.3,30.4,30.12,West,270,4.0,5.4,30,0.00,,,0.00,WUHU216HW,2013-03-04 21:04:00,
2013-03-04 16:09:00,62.6,31.5,30.12,WNW,293,9.2,9.2,31,0.00,,,0.00,WUHU216HW,2013-03-04 21:09:00,
2013-03-04 16:14:00,62.6,32.2,30.12,West,270,2.9,9.2,32,0.00,,,0.00,WUHU216HW,2013-03-04 21:14:00,
2013-03-04 16:19:00,62.8,32.4,30.12,WSW,248,4.9,4.9,32,0.00,,,0.00,WUHU216HW,2013-03-04 21:19:00,
2013-03-04 16:24:00,62.6,32.2,30.12,West,270,2.9,6.3,32,0.00,,,0.00,WUHU216HW,2013-03-04 21:24:00,
2013-03-04 16:29:00,62.5,32.0,30.11,North,0,2.7,6.3,32,0.00,,,0.00,WUHU216HW,2013-03-04 21:29:00,
2013-03-04 16:34:00,62.1,31.8,30.11,West,270,3.6,4.3,32,0.00,,,0.00,WUHU216HW,2013-03-04 21:34:00,
2013-03-04 16:39:00,62.1,31.8,30.12,WSW,248,3.1,3.6,32,0.00,,,0.00,WUHU216HW,2013-03-04 21:39:00,
2013-03-04 16:44:00,62.1,31.8,30.12,West,270,5.4,5.4,32,0.00,,,0.00,WUHU216HW,2013-03-04 21:44:00,
2013-03-04 16:49:00,61.9,31.6,30.12,SE,135,0.4,5.4,32,0.00,,,0.00,WUHU216HW,2013-03-04 21:49:00,
2013-03-04 16:54:00,61.6,31.2,30.12,WSW,248,4.0,5.4,32,0.00,,,0.00,WUHU216HW,2013-03-04 21:54:00,
2013-03-04 16:59:00,61.4,31.1,30.12,NNW,338,2.5,4.9,32,0.00,,,0.00,WUHU216HW,2013-03-04 21:59:00,
2013-03-04 17:04:00,61.2,31.7,30.11,WSW,248,2.7,4.9,33,0.00,,,0.00,WUHU216HW,2013-03-04 22:04:00,
2013-03-04 17:09:00,61.0,31.5,30.12,SW,225,2.5,3.1,33,0.00,,,0.00,WUHU216HW,2013-03-04 22:09:00,
2013-03-04 17:14:00,60.8,31.3,30.11,NNW,338,1.3,4.0,33,0.00,,,0.00,WUHU216HW,2013-03-04 22:14:00,
2013-03-04 17:19:00,60.8,31.3,30.12,SW,225,1.3,4.0,33,0.00,,,0.00,WUHU216HW,2013-03-04 22:19:00,
2013-03-04 17:24:00,60.7,31.9,30.12,North,0,1.1,4.7,34,0.00,,,0.00,WUHU216HW,2013-03-04 22:24:00,
2013-03-04 17:29:00,60.5,31.8,30.12,NNE,23,0.4,4.7,34,0.00,,,0.00,WUHU216HW,2013-03-04 22:29:00,
2013-03-04 17:34:00,60.1,31.4,30.12,WNW,293,0.4,3.4,34,0.00,,,0.00,WUHU216HW,2013-03-04 22:34:00,
2013-03-04 17:39:00,59.9,32.7,30.12,West,270,2.2,3.4,36,0.00,,,0.00,WUHU216HW,2013-03-04 22:39:00,
2013-03-04 17:44:00,59.8,32.6,30.12,WSW,248,0.9,2.2,36,0.00,,,0.00,WUHU216HW,2013-03-04 22:44:00,
2013-03-04 17:49:00,59.4,32.9,30.12,WSW,248,1.1,1.8,37,0.00,,,0.00,WUHU216HW,2013-03-04 22:49:00,
2013-03-04 17:54:00,59.2,32.8,30.12,WSW,248,0.9,1.8,37,0.00,,,0.00,WUHU216HW,2013-03-04 22:54:00,
2013-03-04 17:59:00,58.9,33.2,30.12,West,270,0.0,1.6,38,0.00,,,0.00,WUHU216HW,2013-03-04 22:59:00,
2013-03-04 18:04:00,58.7,33.0,30.12,West,270,0.0,1.1,38,0.00,,,0.00,WUHU216HW,2013-03-04 23:04:00,
2013-03-04 18:09:00,58.3,32.7,30.12,West,270,0.0,0.0,38,0.00,,,0.00,WUHU216HW,2013-03-04 23:09:00,
2013-03-04 18:14:00,58.0,33.0,30.12,North,0,0.0,0.4,39,0.00,,,0.00,WUHU216HW,2013-03-04 23:14:00,
2013-03-04 18:19:00,57.4,33.3,30.13,North,0,0.0,0.4,40,0.00,,,0.00,WUHU216HW,2013-03-04 23:19:00,
2013-03-04 18:24:00,57.2,33.1,30.12,North,0,0.0,0.0,40,0.00,,,0.00,WUHU216HW,2013-03-04 23:24:00,
2013-03-04 18:29:00,56.7,33.2,30.12,NNE,23,0.2,0.4,41,0.00,,,0.00,WUHU216HW,2013-03-04 23:29:00,
2013-03-04 18:34:00,56.3,33.5,30.12,NNE,23,0.0,0.4,42,0.00,,,0.00,WUHU216HW,2013-03-04 23:34:00,
2013-03-04 18:39:00,56.2,33.8,30.12,NNE,23,0.0,0.0,43,0.00,,,0.00,WUHU216HW,2013-03-04 23:39:00,
2013-03-04 18:44:00,56.0,33.7,30.12,NNE,23,0.0,0.0,43,0.00,,,0.00,WUHU216HW,2013-03-04 23:44:00,
2013-03-04 18:49:00,55.4,33.8,30.12,NNE,23,0.0,0.0,44,0.00,,,0.00,WUHU216HW,2013-03-04 23:49:00,
2013-03-04 18:54:00,55.1,33.9,30.13,NNE,23,0.4,0.4,45,0.00,,,0.00,WUHU216HW,2013-03-04 23:54:00,
2013-03-04 18:59:00,54.7,33.7,30.13,NNE,23,0.0,0.4,45,0.00,,,0.00,WUHU216HW,2013-03-04 23:59:00,
2013-03-04 19:04:00,54.4,33.3,30.13,NNE,23,0.0,0.4,45,0.00,,,0.00,WUHU216HW,2013-03-05 00:04:00,
2013-03-04 19:09:00,54.2,33.8,30.13,NNE,23,0.0,0.0,46,0.00,,,0.00,WUHU216HW,2013-03-05 00:09:00,
2013-03-04 19:14:00,53.8,33.4,30.13,NNE,23,0.4,0.7,46,0.00,,,0.00,WUHU216HW,2013-03-05 00:14:00,
2013-03-04 19:19:00,53.6,33.2,30.12,NNE,23,0.0,0.9,46,0.00,,,0.00,WUHU216HW,2013-03-05 00:19:00,
2013-03-04 19:24:00,53.5,33.7,30.13,NNE,23,0.0,0.9,47,0.00,,,0.00,WUHU216HW,2013-03-05 00:24:00,
2013-03-04 19:29:00,53.3,34.6,30.13,SSE,158,0.9,0.9,49,0.00,,,0.00,WUHU216HW,2013-03-05 00:29:00,
2013-03-04 19:34:00,52.6,33.9,30.13,SSE,158,0.0,0.9,49,0.00,,,0.00,WUHU216HW,2013-03-05 00:34:00,
2013-03-04 19:39:00,52.6,34.5,30.13,SSE,158,0.0,0.7,50,0.00,,,0.00,WUHU216HW,2013-03-05 00:39:00,
2013-03-04 19:44:00,52.4,34.7,30.13,SSE,158,0.0,0.0,51,0.00,,,0.00,WUHU216HW,2013-03-05 00:44:00,
2013-03-04 19:49:00,52.4,35.3,30.14,SSE,158,0.0,0.0,52,0.00,,,0.00,WUHU216HW,2013-03-05 00:49:00,
2013-03-04 19:54:00,52.0,35.4,30.14,ENE,68,0.0,0.0,53,0.00,,,0.00,WUHU216HW,2013-03-05 00:54:00,
2013-03-04 19:59:00,51.8,35.6,30.14,SE,135,0.9,1.8,54,0.00,,,0.00,WUHU216HW,2013-03-05 00:59:00,
2013-03-04 20:04:00,51.3,35.7,30.14,SE,135,0.2,1.8,55,0.00,,,0.00,WUHU216HW,2013-03-05 01:04:00,
2013-03-04 20:09:00,51.3,35.7,30.14,SE,135,0.0,0.7,55,0.00,,,0.00,WUHU216HW,2013-03-05 01:09:00,
2013-03-04 20:14:00,51.3,35.7,30.14,SSE,158,0.4,0.4,55,0.00,,,0.00,WUHU216HW,2013-03-05 01:14:00,
2013-03-04 20:19:00,51.1,35.5,30.15,SSE,158,0.0,0.4,55,0.00,,,0.00,WUHU216HW,2013-03-05 01:19:00,
2013-03-04 20:24:00,51.1,35.9,30.15,SSE,158,0.0,0.0,56,0.00,,,0.00,WUHU216HW,2013-03-05 01:24:00,
2013-03-04 20:29:00,51.1,35.9,30.15,ENE,68,0.0,0.0,56,0.00,,,0.00,WUHU216HW,2013-03-05 01:29:00,
2013-03-04 20:34:00,50.9,35.7,30.15,SE,135,0.7,0.7,56,0.00,,,0.00,WUHU216HW,2013-03-05 01:34:00,
2013-03-04 20:39:00,50.6,36.3,30.15,ESE,113,0.0,0.9,58,0.00,,,0.00,WUHU216HW,2013-03-05 01:39:00,
2013-03-04 20:44:00,50.4,36.2,30.14,ESE,113,0.0,0.9,58,0.00,,,0.00,WUHU216HW,2013-03-05 01:44:00,
2013-03-04 20:49:00,50.4,36.2,30.15,ESE,113,0.0,0.0,58,0.00,,,0.00,WUHU216HW,2013-03-05 01:49:00,
2013-03-04 20:54:00,50.2,36.9,30.14,ESE,113,0.0,0.0,60,0.00,,,0.00,WUHU216HW,2013-03-05 01:54:00,
2013-03-04 20:59:00,50.0,36.7,30.13,SE,135,1.3,1.3,60,0.00,,,0.00,WUHU216HW,2013-03-05 01:59:00,
2013-03-04 21:04:00,49.9,37.0,30.14,SE,135,0.0,1.3,61,0.00,,,0.00,WUHU216HW,2013-03-05 02:04:00,
2013-03-04 21:09:00,49.9,37.0,30.14,East,90,0.0,1.1,61,0.00,,,0.00,WUHU216HW,2013-03-05 02:09:00,
2013-03-04 21:14:00,50.0,37.5,30.14,South,180,0.2,0.7,62,0.00,,,0.00,WUHU216HW,2013-03-05 02:14:00,
2013-03-04 21:19:00,49.9,38.2,30.13,SSE,158,1.1,1.1,64,0.00,,,0.00,WUHU216HW,2013-03-05 02:19:00,
2013-03-04 21:24:00,49.5,37.8,30.13,SSE,158,0.0,1.1,64,0.00,,,0.00,WUHU216HW,2013-03-05 02:24:00,
2013-03-04 21:29:00,49.5,37.8,30.13,SE,135,0.0,0.9,64,0.00,,,0.00,WUHU216HW,2013-03-05 02:29:00,
2013-03-04 21:34:00,49.7,38.0,30.13,WSW,248,0.7,1.1,64,0.00,,,0.00,WUHU216HW,2013-03-05 02:34:00,
2013-03-04 21:39:00,49.9,38.2,30.14,WSW,248,0.0,1.1,64,0.00,,,0.00,WUHU216HW,2013-03-05 02:39:00,
2013-03-04 21:44:00,49.9,38.2,30.13,NE,45,1.1,1.1,64,0.00,,,0.00,WUHU216HW,2013-03-05 02:44:00,
2013-03-04 21:49:00,49.9,38.2,30.14,NE,45,0.0,1.1,64,0.00,,,0.00,WUHU216HW,2013-03-05 02:49:00,
2013-03-04 21:54:00,49.9,38.2,30.14,North,0,0.0,1.1,64,0.00,,,0.00,WUHU216HW,2013-03-05 02:54:00,
2013-03-04 21:59:00,50.0,38.4,30.14,North,0,0.0,0.0,64,0.00,,,0.00,WUHU216HW,2013-03-05 02:59:00,
2013-03-04 22:04:00,50.0,38.7,30.14,South,180,0.4,1.3,65,0.00,,,0.00,WUHU216HW,2013-03-05 03:04:00,
2013-03-04 22:09:00,49.9,38.9,30.15,North,0,0.7,1.3,66,0.00,,,0.00,WUHU216HW,2013-03-05 03:09:00,
2013-03-04 22:14:00,49.9,38.5,30.15,North,0,0.4,1.1,65,0.00,,,0.00,WUHU216HW,2013-03-05 03:14:00,
2013-03-04 22:19:00,49.9,38.5,30.15,North,0,0.0,1.1,65,0.00,,,0.00,WUHU216HW,2013-03-05 03:19:00,
2013-03-04 22:24:00,49.7,38.3,30.15,North,0,0.0,0.4,65,0.00,,,0.00,WUHU216HW,2013-03-05 03:24:00,
2013-03-04 22:29:00,49.5,38.6,30.14,SSE,158,0.4,0.7,66,0.00,,,0.00,WUHU216HW,2013-03-05 03:29:00,
2013-03-04 22:34:00,49.5,38.6,30.14,ENE,68,0.0,0.7,66,0.00,,,0.00,WUHU216HW,2013-03-05 03:34:00,
2013-03-04 22:39:00,49.5,38.6,30.15,NE,45,0.2,1.1,66,0.00,,,0.00,WUHU216HW,2013-03-05 03:39:00,
2013-03-04 22:44:00,49.3,38.4,30.14,NNE,23,0.7,1.1,66,0.00,,,0.00,WUHU216HW,2013-03-05 03:44:00,
2013-03-04 22:49:00,49.3,38.4,30.15,North,0,0.7,1.1,66,0.00,,,0.00,WUHU216HW,2013-03-05 03:49:00,
2013-03-04 22:54:00,49.3,38.4,30.14,NNE,23,0.7,1.1,66,0.00,,,0.00,WUHU216HW,2013-03-05 03:54:00,
2013-03-04 22:59:00,49.3,38.4,30.14,NNE,23,0.0,0.9,66,0.00,,,0.00,WUHU216HW,2013-03-05 03:59:00,
2013-03-04 23:04:00,49.3,38.4,30.14,South,180,1.1,1.3,66,0.00,,,0.00,WUHU216HW,2013-03-05 04:04:00,
2013-03-04 23:09:00,49.1,38.6,30.14,South,180,0.0,1.3,67,0.00,,,0.00,WUHU216HW,2013-03-05 04:09:00,
2013-03-04 23:14:00,48.8,38.3,30.13,ESE,113,0.0,1.1,67,0.00,,,0.00,WUHU216HW,2013-03-05 04:14:00,
2013-03-04 23:19:00,48.6,38.5,30.14,South,180,0.4,0.7,68,0.00,,,0.00,WUHU216HW,2013-03-05 04:19:00,
2013-03-04 23:24:00,48.6,38.5,30.13,South,180,0.0,0.7,68,0.00,,,0.00,WUHU216HW,2013-03-05 04:24:00,
2013-03-04 23:29:00,48.6,38.9,30.13,SE,135,0.0,0.4,69,0.00,,,0.00,WUHU216HW,2013-03-05 04:29:00,
2013-03-04 23:34:00,48.4,38.7,30.13,SSE,158,0.2,0.7,69,0.00,,,0.00,WUHU216HW,2013-03-05 04:34:00,
2013-03-04 23:39:00,48.4,39.1,30.12,SE,135,0.0,0.9,70,0.00,,,0.00,WUHU216HW,2013-03-05 04:39:00,
2013-03-04 23:45:00,48.2,38.9,30.13,East,90,0.0,0.9,70,0.00,,,0.00,WUHU216HW,2013-03-05 04:45:00,
2013-03-04 23:50:00,48.1,38.7,30.12,SSE,158,1.1,1.1,70,0.00,,,0.00,WUHU216HW,2013-03-05 04:50:00,
2013-03-04 23:55:00,48.1,39.4,30.12,SSE,158,0.7,1.8,72,0.00,,,0.00,WUHU216HW,2013-03-05 04:55:00,